createdAt,value
2017-09-13T00:01:28.269Z,10.90
2017-09-13T00:03:55.419Z,11.83
2017-09-13T00:06:21.854Z,12.20
2017-09-13T00:08:48.290Z,11.33
2017-09-13T00:11:14.723Z,12.47
2017-09-13T00:13:41.159Z,12.20
2017-09-13T00:16:07.696Z,11.73
2017-09-13T00:18:34.131Z,11.80
2017-09-13T00:21:01.231Z,13.50
2017-09-13T00:23:27.714Z,12.40
2017-09-13T00:25:54.098Z,12.60
2017-09-13T00:28:20.449Z,12.70
2017-09-13T00:30:46.917Z,11.97
2017-09-13T00:33:13.355Z,12.07
2017-09-13T00:35:39.791Z,10.60
2017-09-13T00:38:06.943Z,8.67
2017-09-13T00:40:33.479Z,8.37
2017-09-13T00:42:59.913Z,8.43
2017-09-13T00:45:26.299Z,8.67
2017-09-13T00:47:52.764Z,8.90
2017-09-13T00:50:19.218Z,8.70
2017-09-13T00:52:45.672Z,8.80
2017-09-13T00:55:12.804Z,10.50
2017-09-13T00:57:39.261Z,9.53
2017-09-13T01:00:05.655Z,9.63
2017-09-13T01:02:32.110Z,9.33
2017-09-13T01:04:58.545Z,11.77
2017-09-13T01:07:25.001Z,11.60
2017-09-13T01:09:51.414Z,10.40
2017-09-13T01:12:18.566Z,11.17
2017-09-13T01:14:45.003Z,11.50
2017-09-13T01:17:11.436Z,11.20
2017-09-13T01:19:37.870Z,11.80
2017-09-13T01:22:04.308Z,11.70
2017-09-13T01:24:30.742Z,9.90
2017-09-13T01:26:57.196Z,9.90
2017-09-13T01:29:24.310Z,8.70
2017-09-13T01:31:50.761Z,8.87
2017-09-13T01:34:17.198Z,9.80
2017-09-13T01:36:43.734Z,9.80
2017-09-13T01:39:10.169Z,9.10
2017-09-13T01:41:36.604Z,8.83
2017-09-13T01:44:02.962Z,9.10
2017-09-13T01:46:30.164Z,8.67
2017-09-13T01:48:56.627Z,9.10
2017-09-13T01:51:23.025Z,9.43
2017-09-13T01:53:49.495Z,8.60
2017-09-13T01:56:15.930Z,8.70
2017-09-13T01:58:42.315Z,8.80
2017-09-13T02:01:08.798Z,9.33
2017-09-13T02:03:35.953Z,8.60
2017-09-13T02:06:02.338Z,8.63
2017-09-13T02:08:28.742Z,9.30
2017-09-13T02:10:55.155Z,9.17
2017-09-13T02:13:21.589Z,8.90
2017-09-13T02:15:47.971Z,9.50
2017-09-13T02:18:14.406Z,9.30
2017-09-13T02:20:41.509Z,9.10
2017-09-13T02:23:07.965Z,9.30
2017-09-13T02:25:34.489Z,9.73
2017-09-13T02:28:00.915Z,9.77
2017-09-13T02:30:27.351Z,9.70
2017-09-13T02:32:53.789Z,8.90
2017-09-13T02:35:20.277Z,8.90
2017-09-13T02:37:47.372Z,9.03
2017-09-13T02:40:13.808Z,9.57
2017-09-13T02:42:40.192Z,9.90
2017-09-13T02:45:06.665Z,8.40
2017-09-13T02:47:33.122Z,8.20
2017-09-13T02:49:59.568Z,8.27
2017-09-13T02:52:26.085Z,8.87
2017-09-13T02:54:53.237Z,8.07
2017-09-13T02:57:19.773Z,7.97
2017-09-13T02:59:46.311Z,7.80
2017-09-13T03:02:12.691Z,8.70
2017-09-13T03:04:39.154Z,8.77
2017-09-13T03:07:05.615Z,8.03
2017-09-13T03:09:32.050Z,8.30
2017-09-13T03:11:59.201Z,8.40
2017-09-13T03:14:25.625Z,8.97
2017-09-13T03:16:52.069Z,10.30
2017-09-13T03:19:18.507Z,9.40
2017-09-13T03:21:44.941Z,8.33
2017-09-13T03:24:11.378Z,8.77
2017-09-13T03:26:37.759Z,8.50
2017-09-13T03:29:05.065Z,8.40
2017-09-13T03:31:31.462Z,8.40
2017-09-13T03:33:57.833Z,7.23
2017-09-13T03:36:24.267Z,8.07
2017-09-13T03:38:50.703Z,7.80
2017-09-13T03:41:17.138Z,7.90
2017-09-13T03:43:43.572Z,8.97
2017-09-13T03:46:10.826Z,9.47
2017-09-13T03:48:37.261Z,8.80
2017-09-13T03:51:03.696Z,8.83
2017-09-13T03:53:30.130Z,9.00
2017-09-13T03:55:56.480Z,9.03
2017-09-13T03:58:22.995Z,8.57
2017-09-13T04:00:49.541Z,9.20
2017-09-13T04:03:16.579Z,9.23
2017-09-13T04:05:42.971Z,9.03
2017-09-13T04:08:09.457Z,10.00
2017-09-13T04:10:35.895Z,8.90
2017-09-13T04:13:02.349Z,9.57
2017-09-13T04:15:28.966Z,10.10
2017-09-13T04:17:55.404Z,9.77
2017-09-13T04:20:21.856Z,10.83
2017-09-13T04:22:48.245Z,11.80
2017-09-13T04:25:14.688Z,11.10
2017-09-13T04:27:41.132Z,10.80
2017-09-13T04:30:07.583Z,10.00
2017-09-13T04:32:34.014Z,10.80
2017-09-13T04:35:00.445Z,9.97
2017-09-13T04:37:27.597Z,8.63
2017-09-13T04:39:54.033Z,9.50
2017-09-13T04:42:20.467Z,9.10
2017-09-13T04:44:46.902Z,9.37
2017-09-13T04:47:13.337Z,9.40
2017-09-13T04:49:39.790Z,9.67
2017-09-13T04:52:06.207Z,11.20
2017-09-13T04:54:33.461Z,8.60
2017-09-13T04:56:59.896Z,9.50
2017-09-13T04:59:26.331Z,9.63
2017-09-13T05:01:52.773Z,9.30
2017-09-13T05:04:19.156Z,9.37
2017-09-13T05:06:45.635Z,10.23
2017-09-13T05:09:12.071Z,10.17
2017-09-13T05:11:39.324Z,10.97
2017-09-13T05:14:05.759Z,11.57
2017-09-13T05:16:32.194Z,13.10
2017-09-13T05:18:58.626Z,12.93
2017-09-13T05:21:25.026Z,13.73
2017-09-13T05:23:51.487Z,16.10
2017-09-13T05:26:17.929Z,17.20
2017-09-13T05:28:45.085Z,16.83
2017-09-13T05:31:11.515Z,17.90
2017-09-13T05:33:37.955Z,16.20
2017-09-13T05:36:04.390Z,16.27
2017-09-13T05:38:30.825Z,16.07
2017-09-13T05:40:57.260Z,14.70
2017-09-13T05:43:23.696Z,14.83
2017-09-13T05:45:50.951Z,15.27
2017-09-13T05:48:17.383Z,15.30
2017-09-13T05:50:43.767Z,15.53
2017-09-13T05:53:10.253Z,14.90
2017-09-13T05:55:36.689Z,14.07
2017-09-13T05:58:03.534Z,13.40
2017-09-13T06:00:29.956Z,14.13
2017-09-13T06:02:56.351Z,11.70
2017-09-13T06:05:22.813Z,12.23
2017-09-13T06:07:49.256Z,12.80
2017-09-13T06:10:15.763Z,12.30
2017-09-13T06:12:42.201Z,10.63
2017-09-13T06:15:08.659Z,11.90
2017-09-13T06:17:35.319Z,10.80
2017-09-13T06:20:01.754Z,10.13
2017-09-13T06:22:28.189Z,9.93
2017-09-13T06:24:54.581Z,8.73
2017-09-13T06:27:21.051Z,9.33
2017-09-13T06:29:47.593Z,12.40
2017-09-13T06:32:14.033Z,13.50
2017-09-13T06:34:40.570Z,11.90
2017-09-13T06:37:07.252Z,10.17
2017-09-13T06:39:33.847Z,9.33
2017-09-13T06:42:00.245Z,9.60
2017-09-13T06:44:27.036Z,10.57
2017-09-13T06:46:53.461Z,10.40
2017-09-13T06:49:19.859Z,11.40
2017-09-13T06:51:46.534Z,9.70
2017-09-13T06:54:12.972Z,10.43
2017-09-13T06:56:39.404Z,11.30
2017-09-13T06:59:06.044Z,10.03
2017-09-13T07:01:32.420Z,11.80
2017-09-13T07:03:58.913Z,11.10
2017-09-13T07:06:25.374Z,11.50
2017-09-13T07:08:51.885Z,10.10
2017-09-13T07:11:18.383Z,10.90
2017-09-13T07:13:45.060Z,10.93
2017-09-13T07:16:11.495Z,10.90
2017-09-13T07:18:38.033Z,17.67
2017-09-13T07:21:04.670Z,18.47
2017-09-13T07:23:31.107Z,12.30
2017-09-13T07:25:57.644Z,9.90
2017-09-13T07:28:24.235Z,10.17
2017-09-13T07:30:50.679Z,9.70
2017-09-13T07:33:18.178Z,10.87
2017-09-13T07:35:44.612Z,10.00
2017-09-13T07:38:11.047Z,8.50
2017-09-13T07:40:37.892Z,11.90
2017-09-13T07:43:04.328Z,9.40
2017-09-13T07:45:30.717Z,11.40
2017-09-13T07:47:57.307Z,8.40
2017-09-13T07:50:23.834Z,8.33
2017-09-13T07:52:50.269Z,8.00
2017-09-13T07:55:17.092Z,7.30
2017-09-13T07:57:43.655Z,9.27
2017-09-13T08:00:10.700Z,8.23
2017-09-13T08:02:38.371Z,7.83
2017-09-13T08:05:04.964Z,8.20
2017-09-13T08:07:31.545Z,8.30
2017-09-13T08:09:58.100Z,8.30
2017-09-13T08:12:24.466Z,8.37
2017-09-13T08:14:50.846Z,8.40
2017-09-13T08:17:18.418Z,8.60
2017-09-13T08:19:45.150Z,9.00
2017-09-13T08:22:11.599Z,8.67
2017-09-13T08:24:38.487Z,8.40
2017-09-13T08:27:05.070Z,8.10
2017-09-13T08:29:31.591Z,8.97
2017-09-13T08:31:58.351Z,8.10
2017-09-13T08:34:24.885Z,9.30
2017-09-13T08:36:51.320Z,8.20
2017-09-13T08:39:18.373Z,8.40
2017-09-13T08:41:45.234Z,7.90
2017-09-13T08:44:11.751Z,8.63
2017-09-13T08:46:38.341Z,8.53
2017-09-13T08:49:04.959Z,8.63
2017-09-13T08:51:31.620Z,7.80
2017-09-13T08:53:58.518Z,8.20
2017-09-13T08:56:25.154Z,7.33
2017-09-13T08:58:51.692Z,7.03
2017-09-13T09:01:19.123Z,7.77
2017-09-13T09:03:45.689Z,7.27
2017-09-13T09:06:12.132Z,8.33
2017-09-13T09:08:39.583Z,6.47
2017-09-13T09:11:06.018Z,7.50
2017-09-13T09:13:32.451Z,7.30
2017-09-13T09:15:59.657Z,7.73
2017-09-13T09:18:26.141Z,8.13
2017-09-13T09:20:52.986Z,7.50
2017-09-13T09:23:19.932Z,6.90
2017-09-13T09:25:46.376Z,7.10
2017-09-13T09:28:13.225Z,7.27
2017-09-13T09:30:40.056Z,6.87
2017-09-13T09:33:06.595Z,6.93
2017-09-13T09:35:33.201Z,6.30
2017-09-13T09:37:59.770Z,5.80
2017-09-13T09:40:26.211Z,6.30
2017-09-13T09:42:53.152Z,5.93
2017-09-13T09:45:19.894Z,5.27
2017-09-13T09:47:46.536Z,4.77
2017-09-13T09:50:13.178Z,4.67
2017-09-13T09:52:40.019Z,5.50
2017-09-13T09:55:06.761Z,6.03
2017-09-13T09:57:33.300Z,6.00
2017-09-13T09:59:59.727Z,5.87
2017-09-13T10:02:26.173Z,6.80
2017-09-13T10:04:52.813Z,6.53
2017-09-13T10:07:19.532Z,6.80
2017-09-13T10:09:46.031Z,7.17
2017-09-13T10:12:12.653Z,7.40
2017-09-13T10:14:39.469Z,8.70
2017-09-13T10:17:06.065Z,6.53
2017-09-13T10:19:32.960Z,7.13
2017-09-13T10:21:59.490Z,6.97
2017-09-13T10:24:26.030Z,6.67
2017-09-13T10:26:52.411Z,6.77
2017-09-13T10:29:19.004Z,6.97
2017-09-13T10:31:45.639Z,7.43
2017-09-13T10:34:12.483Z,7.70
2017-09-13T10:36:39.070Z,7.73
2017-09-13T10:39:05.507Z,7.30
2017-09-13T10:41:31.981Z,7.97
2017-09-13T10:43:58.428Z,7.63
2017-09-13T10:46:24.863Z,7.70
2017-09-13T10:48:51.298Z,7.50
2017-09-13T10:51:17.679Z,7.83
2017-09-13T10:53:44.065Z,7.13
2017-09-13T10:56:10.519Z,7.27
2017-09-13T10:58:37.037Z,7.13
2017-09-13T11:01:03.474Z,8.67
2017-09-13T11:03:29.908Z,7.10
2017-09-13T11:05:56.292Z,8.07
2017-09-13T11:08:22.778Z,8.07
2017-09-13T11:10:49.197Z,8.10
2017-09-13T11:13:16.061Z,7.60
2017-09-13T11:15:42.618Z,7.57
2017-09-13T11:18:09.249Z,8.37
2017-09-13T11:20:35.644Z,7.17
2017-09-13T11:23:02.206Z,7.97
2017-09-13T11:25:28.642Z,7.90
2017-09-13T11:27:55.077Z,7.10
2017-09-13T11:30:21.511Z,7.50
2017-09-13T11:32:48.051Z,7.40
2017-09-13T11:35:14.588Z,8.03
2017-09-13T11:37:41.086Z,8.03
2017-09-13T11:40:07.558Z,7.37
2017-09-13T11:42:34.300Z,7.57
2017-09-13T11:45:00.735Z,7.07
2017-09-13T11:47:27.170Z,7.53
2017-09-13T11:49:54.159Z,7.17
2017-09-13T11:52:20.854Z,7.30
2017-09-13T11:54:47.400Z,8.60
2017-09-13T11:57:14.389Z,7.83
2017-09-13T11:59:40.856Z,7.17
2017-09-13T12:02:08.018Z,7.40
2017-09-13T12:04:34.599Z,7.47
2017-09-13T12:07:01.413Z,7.60
2017-09-13T12:09:27.952Z,7.30
2017-09-13T12:14:27.272Z,7.47
2017-09-13T12:16:53.785Z,6.87
2017-09-13T12:19:20.359Z,8.20
2017-09-13T12:21:47.089Z,7.60
2017-09-13T12:24:13.581Z,8.47
2017-09-13T12:26:40.006Z,7.77
2017-09-13T12:29:06.652Z,7.43
2017-09-13T12:31:33.341Z,7.60
2017-09-13T12:33:59.877Z,7.67
2017-09-13T12:36:26.722Z,8.37
2017-09-13T12:38:53.157Z,7.80
2017-09-13T12:41:19.592Z,7.10
2017-09-13T12:43:46.282Z,7.43
2017-09-13T12:46:13.078Z,6.33
2017-09-13T12:48:39.614Z,5.80
2017-09-13T12:51:06.514Z,6.40
2017-09-13T12:53:32.892Z,6.67
2017-09-13T12:55:59.327Z,6.37
2017-09-13T12:58:25.865Z,6.33
2017-09-13T13:00:52.300Z,6.23
2017-09-13T13:03:19.144Z,7.10
2017-09-13T13:05:45.580Z,5.90
2017-09-13T13:08:12.218Z,6.23
2017-09-13T13:10:38.654Z,5.93
2017-09-13T13:13:05.501Z,5.40
2017-09-13T13:15:32.001Z,5.33
2017-09-13T13:17:58.880Z,5.20
2017-09-13T13:20:25.522Z,6.10
2017-09-13T13:22:51.955Z,6.10
2017-09-13T13:25:18.698Z,6.20
2017-09-13T13:27:45.538Z,5.83
2017-09-13T13:30:11.977Z,5.50
2017-09-13T13:32:38.412Z,6.57
2017-09-13T13:35:05.307Z,7.03
2017-09-13T13:37:32.715Z,7.80
2017-09-13T13:39:59.170Z,7.70
2017-09-13T13:42:26.507Z,7.50
2017-09-13T13:44:52.943Z,8.10
2017-09-13T13:47:19.478Z,6.93
2017-09-13T13:49:45.950Z,6.90
2017-09-13T13:52:12.456Z,8.67
2017-09-13T13:54:39.091Z,6.77
2017-09-13T13:57:05.526Z,6.00
2017-09-13T13:59:31.962Z,6.07
2017-09-13T14:01:58.967Z,6.10
2017-09-13T14:04:25.444Z,6.17
2017-09-13T14:06:51.836Z,5.63
2017-09-13T14:09:18.518Z,6.07
2017-09-13T14:11:45.538Z,6.10
2017-09-13T14:14:12.004Z,6.07
2017-09-13T14:16:38.684Z,6.70
2017-09-13T14:19:05.179Z,6.67
2017-09-13T14:21:31.717Z,6.60
2017-09-13T14:23:58.575Z,7.40
2017-09-13T14:26:24.997Z,7.20
2017-09-13T14:28:51.739Z,7.63
2017-09-13T14:31:18.714Z,7.33
2017-09-13T14:33:45.533Z,8.57
2017-09-13T14:36:11.923Z,9.20
2017-09-13T14:38:38.521Z,10.70
2017-09-13T14:41:05.449Z,11.13
2017-09-13T14:43:31.885Z,10.30
2017-09-13T14:45:58.328Z,10.00
2017-09-13T14:48:25.610Z,10.53
2017-09-13T14:50:52.116Z,10.00
2017-09-13T14:53:18.759Z,9.80
2017-09-13T14:55:45.308Z,9.80
2017-09-13T14:58:12.235Z,10.20
2017-09-13T15:00:38.669Z,9.90
2017-09-13T15:03:05.105Z,9.80
2017-09-13T15:05:31.539Z,9.73
2017-09-13T15:07:57.973Z,8.53
2017-09-13T15:10:24.410Z,8.97
2017-09-13T15:12:50.844Z,8.57
2017-09-13T15:15:17.279Z,8.60
2017-09-13T15:17:43.650Z,8.30
2017-09-13T15:20:10.148Z,8.30
2017-09-13T15:22:36.532Z,7.63
2017-09-13T15:25:02.916Z,8.13
2017-09-13T15:27:29.351Z,7.60
2017-09-13T15:29:56.624Z,8.07
2017-09-13T15:32:23.040Z,7.83
2017-09-13T15:34:49.475Z,7.10
2017-09-13T15:37:15.909Z,7.63
2017-09-13T15:39:46.584Z,7.80
2017-09-13T15:42:24.526Z,8.30
2017-09-13T15:44:58.515Z,7.97
2017-09-13T15:47:31.597Z,7.93
2017-09-13T15:49:58.703Z,8.20
2017-09-13T15:52:25.047Z,8.70
2017-09-13T15:54:51.473Z,8.70
2017-09-13T15:57:17.904Z,9.30
2017-09-13T15:59:44.341Z,9.40
2017-09-13T16:02:10.775Z,9.53
2017-09-13T16:04:37.171Z,9.57
2017-09-13T16:07:03.644Z,10.30
2017-09-13T16:09:30.081Z,9.90
2017-09-13T16:11:56.514Z,9.57
2017-09-13T16:14:23.783Z,10.03
2017-09-13T16:16:50.203Z,9.90
2017-09-13T16:19:16.622Z,9.57
2017-09-13T16:21:43.073Z,10.17
2017-09-13T16:24:09.509Z,9.63
2017-09-13T16:26:35.944Z,9.80
2017-09-13T16:29:02.378Z,9.90
2017-09-13T16:31:29.479Z,10.63
2017-09-13T16:33:55.964Z,10.40
2017-09-13T16:36:22.352Z,10.00
2017-09-13T16:38:48.839Z,9.53
2017-09-13T16:41:15.270Z,10.50
2017-09-13T16:43:41.708Z,10.23
2017-09-13T16:46:08.142Z,9.70
2017-09-13T16:48:35.337Z,9.70
2017-09-13T16:51:01.828Z,9.30
2017-09-13T16:53:28.366Z,9.67
2017-09-13T16:55:54.802Z,10.27
2017-09-13T16:58:21.236Z,9.27
2017-09-13T17:00:47.669Z,9.00
2017-09-13T17:03:14.105Z,8.97
2017-09-13T17:05:41.306Z,8.97
2017-09-13T17:08:07.794Z,8.60
2017-09-13T17:10:34.226Z,7.93
2017-09-13T17:13:00.664Z,8.33
2017-09-13T17:15:27.100Z,8.60
2017-09-13T17:17:53.534Z,7.87
2017-09-13T17:20:19.969Z,7.40
2017-09-13T17:22:47.121Z,7.87
2017-09-13T17:25:13.555Z,8.10
2017-09-13T17:27:39.973Z,7.30
2017-09-13T17:30:06.323Z,7.00
2017-09-13T17:32:32.703Z,7.60
2017-09-13T17:34:59.090Z,7.70
2017-09-13T17:37:25.627Z,7.43
2017-09-13T17:39:52.712Z,7.10
2017-09-13T17:42:19.113Z,8.00
2017-09-13T17:44:45.546Z,7.90
2017-09-13T17:47:11.983Z,7.90
2017-09-13T17:49:38.423Z,7.90
2017-09-13T17:52:04.851Z,7.30
2017-09-13T17:54:31.286Z,7.20
2017-09-13T17:56:58.386Z,7.10
2017-09-13T17:59:24.770Z,8.30
2017-09-13T18:01:51.205Z,8.40
2017-09-13T18:04:17.640Z,8.70
2017-09-13T18:06:44.075Z,8.57
2017-09-13T18:09:10.439Z,8.80
2017-09-13T18:11:36.843Z,7.70
2017-09-13T18:14:04.199Z,8.10
2017-09-13T18:16:30.604Z,8.30
2017-09-13T18:18:57.071Z,8.10
2017-09-13T18:21:23.504Z,7.80
2017-09-13T18:23:49.938Z,7.30
2017-09-13T18:26:16.375Z,7.57
2017-09-13T18:28:42.808Z,8.00
2017-09-13T18:31:09.858Z,8.13
2017-09-13T18:33:36.279Z,7.80
2017-09-13T18:36:02.728Z,7.80
2017-09-13T18:38:29.161Z,7.17
2017-09-13T18:40:55.597Z,7.60
2017-09-13T18:43:22.027Z,7.80
2017-09-13T18:45:48.374Z,8.30
2017-09-13T18:48:15.619Z,7.90
2017-09-13T18:50:42.053Z,8.20
2017-09-13T18:53:08.488Z,8.40
2017-09-13T18:55:35.025Z,8.67
2017-09-13T18:58:01.457Z,8.10
2017-09-13T19:00:27.896Z,8.50
2017-09-13T19:02:54.331Z,8.37
2017-09-13T19:05:21.585Z,8.33
2017-09-13T19:07:48.023Z,8.70
2017-09-13T19:10:14.403Z,8.87
2017-09-13T19:12:40.889Z,8.57
2017-09-13T19:15:07.326Z,8.60
2017-09-13T19:17:33.761Z,9.17
2017-09-13T19:20:00.200Z,8.60
2017-09-13T19:22:27.346Z,8.50
2017-09-13T19:24:53.781Z,8.60
2017-09-13T19:27:20.222Z,9.10
2017-09-13T19:29:46.677Z,8.70
2017-09-13T19:32:13.087Z,8.90
2017-09-13T19:34:39.524Z,9.27
2017-09-13T19:37:05.959Z,8.83
2017-09-13T19:39:33.107Z,8.87
2017-09-13T19:41:59.501Z,9.70
2017-09-13T19:44:25.977Z,9.80
2017-09-13T19:46:52.413Z,10.40
2017-09-13T19:49:18.852Z,10.27
2017-09-13T19:51:45.282Z,10.57
2017-09-13T19:54:11.731Z,10.80
2017-09-13T19:56:38.888Z,10.10
2017-09-13T19:59:05.303Z,10.53
2017-09-13T20:01:31.759Z,10.73
2017-09-13T20:03:58.173Z,10.40
2017-09-13T20:06:24.604Z,11.17
2017-09-13T20:08:51.043Z,9.70
2017-09-13T20:11:17.478Z,10.27
2017-09-13T20:13:44.629Z,10.20
2017-09-13T20:16:11.063Z,10.20
2017-09-13T20:18:37.499Z,9.10
2017-09-13T20:21:03.939Z,9.30
2017-09-13T20:23:30.371Z,8.87
2017-09-13T20:25:56.804Z,10.23
2017-09-13T20:28:23.239Z,8.57
2017-09-13T20:30:50.493Z,10.17
2017-09-13T20:33:16.927Z,9.43
2017-09-13T20:35:43.381Z,9.47
2017-09-13T20:38:09.806Z,9.33
2017-09-13T20:40:36.232Z,8.90
2017-09-13T20:43:02.666Z,9.27
2017-09-13T20:45:29.101Z,9.60
2017-09-13T20:47:56.253Z,9.00
2017-09-13T20:50:22.639Z,9.13
2017-09-13T20:52:49.123Z,9.60
2017-09-13T20:55:15.558Z,9.67
2017-09-13T20:57:41.993Z,9.70
2017-09-13T21:00:08.419Z,9.80
2017-09-13T21:02:34.836Z,9.70
2017-09-13T21:05:02.015Z,9.97
2017-09-13T21:07:28.404Z,9.23
2017-09-13T21:09:54.885Z,9.97
2017-09-13T21:12:21.307Z,9.20
2017-09-13T21:14:47.754Z,9.73
2017-09-13T21:17:14.188Z,10.00
2017-09-13T21:19:40.624Z,9.60
2017-09-13T21:22:07.753Z,8.97
2017-09-13T21:24:34.197Z,9.50
2017-09-13T21:27:00.639Z,11.00
2017-09-13T21:29:27.081Z,9.67
2017-09-13T21:31:53.515Z,10.03
2017-09-13T21:34:19.950Z,9.97
2017-09-13T21:36:46.386Z,10.33
2017-09-13T21:39:13.652Z,10.00
2017-09-13T21:41:40.012Z,9.73
2017-09-13T21:44:06.356Z,9.73
2017-09-13T21:46:32.829Z,9.30
2017-09-13T21:48:59.273Z,9.40
2017-09-13T21:51:25.916Z,10.13
2017-09-13T21:53:52.351Z,9.70
2017-09-13T21:56:18.786Z,9.60
2017-09-13T21:58:45.323Z,9.70
2017-09-13T22:01:11.758Z,9.97
2017-09-13T22:03:38.910Z,9.30
2017-09-13T22:08:36.597Z,9.17
2017-09-13T22:11:03.137Z,9.90
2017-09-13T22:13:29.570Z,9.30
2017-09-13T22:15:55.999Z,9.40
2017-09-13T22:18:22.435Z,9.10
2017-09-13T22:20:48.818Z,10.13
2017-09-13T22:23:15.304Z,9.90
2017-09-13T22:25:41.841Z,9.93
2017-09-13T22:28:08.277Z,9.80
2017-09-13T22:30:35.429Z,10.87
2017-09-13T22:33:01.863Z,11.00
2017-09-13T22:35:28.297Z,9.90
2017-09-13T22:37:54.733Z,10.10
2017-09-13T22:40:21.168Z,12.17
2017-09-13T22:42:47.603Z,10.27
2017-09-13T22:45:14.038Z,14.33
2017-09-13T22:47:41.087Z,11.20
2017-09-13T22:50:07.522Z,10.93
2017-09-13T22:52:33.957Z,10.20
2017-09-13T22:55:00.375Z,10.60
2017-09-13T22:57:26.817Z,10.70
2017-09-13T22:59:53.261Z,10.77
2017-09-13T23:02:19.699Z,10.13
2017-09-13T23:04:46.849Z,11.07
2017-09-13T23:07:13.282Z,10.93
2017-09-13T23:09:39.739Z,12.10
2017-09-13T23:12:06.261Z,10.63
2017-09-13T23:14:32.640Z,10.53
2017-09-13T23:16:59.127Z,11.13
2017-09-13T23:19:25.526Z,10.80
2017-09-13T23:21:52.814Z,10.70
2017-09-13T23:24:19.249Z,9.47
2017-09-13T23:26:45.781Z,11.03
2017-09-13T23:29:12.221Z,10.77
2017-09-13T23:31:38.674Z,10.67
2017-09-13T23:34:05.091Z,11.40
2017-09-13T23:36:31.644Z,11.37
2017-09-13T23:38:58.574Z,11.50
2017-09-13T23:41:25.010Z,12.27
2017-09-13T23:43:51.445Z,12.70
2017-09-13T23:46:17.881Z,12.30
2017-09-13T23:48:44.263Z,11.77
2017-09-13T23:51:10.749Z,11.70
2017-09-13T23:53:37.185Z,11.43
2017-09-13T23:56:04.438Z,11.93
2017-09-13T23:58:30.876Z,11.70
